createdAt,value
2022-11-04T00:02:05.218Z,12.75
2022-11-04T00:04:31.688Z,9.13
2022-11-04T00:06:58.370Z,7.95
2022-11-04T00:09:27.543Z,9.23
2022-11-04T00:12:13.410Z,9.48
2022-11-04T00:14:39.831Z,12.68
2022-11-04T00:17:22.866Z,8.95
2022-11-04T00:20:10.640Z,10.90
2022-11-04T00:22:57.105Z,9.38
2022-11-04T00:25:42.347Z,13.25
2022-11-04T00:28:33.957Z,16.80
2022-11-04T00:31:22.119Z,13.45
2022-11-04T00:33:49.818Z,13.45
2022-11-04T00:36:16.719Z,13.25
2022-11-04T00:38:43.141Z,12.88
2022-11-04T00:41:26.291Z,16.40
2022-11-04T00:43:58.742Z,13.38
2022-11-04T00:46:26.019Z,14.25
2022-11-04T00:48:52.701Z,13.95
2022-11-04T00:51:19.749Z,18.45
2022-11-04T00:53:46.182Z,14.40
2022-11-04T00:56:12.753Z,10.88
2022-11-04T00:58:39.817Z,22.13
2022-11-04T01:01:10.665Z,15.60
2022-11-04T01:03:37.250Z,11.90
2022-11-04T01:06:04.554Z,14.88
2022-11-04T01:08:30.966Z,12.55
2022-11-04T01:11:01.638Z,11.82
2022-11-04T01:13:28.020Z,13.35
2022-11-04T01:15:54.406Z,22.48
2022-11-04T01:18:20.761Z,14.80
2022-11-04T01:20:47.158Z,13.30
2022-11-04T01:23:13.985Z,20.35
2022-11-04T01:25:41.814Z,15.77
2022-11-04T01:28:08.463Z,13.50
2022-11-04T01:30:35.133Z,12.75
2022-11-04T01:33:01.532Z,14.02
2022-11-04T01:35:27.914Z,15.57
2022-11-04T01:37:54.306Z,14.38
2022-11-04T01:40:20.672Z,15.15
2022-11-04T01:42:47.041Z,15.27
2022-11-04T01:45:16.052Z,21.67
2022-11-04T01:47:48.421Z,13.27
2022-11-04T01:50:20.624Z,15.68
2022-11-04T01:52:52.819Z,9.20
2022-11-04T01:55:23.637Z,12.43
2022-11-04T01:57:52.850Z,9.98
2022-11-04T02:00:19.313Z,10.40
2022-11-04T02:03:20.727Z,21.85
2022-11-04T02:05:48.276Z,10.18
2022-11-04T02:08:16.717Z,9.05
2022-11-04T02:10:50.880Z,9.63
2022-11-04T02:13:17.600Z,8.57
2022-11-04T02:16:08.497Z,10.90
2022-11-04T02:19:03.895Z,10.60
2022-11-04T02:21:35.686Z,12.10
2022-11-04T02:24:09.287Z,7.03
2022-11-04T02:29:28.895Z,9.02
2022-11-04T02:32:09.700Z,10.93
2022-11-04T02:35:01.440Z,6.57
2022-11-04T02:38:06.309Z,9.95
2022-11-04T02:40:59.124Z,6.25
2022-11-04T02:43:45.965Z,4.90
2022-11-04T02:46:24.443Z,4.20
2022-11-04T02:48:57.425Z,4.22
2022-11-04T02:51:38.483Z,4.32
2022-11-04T02:54:18.036Z,5.60
2022-11-04T02:56:49.947Z,4.47
2022-11-04T02:59:37.133Z,4.63
2022-11-04T03:02:07.745Z,7.05
2022-11-04T03:04:41.600Z,5.78
2022-11-04T03:09:45.860Z,4.05
2022-11-04T03:12:16.903Z,7.55
2022-11-04T03:14:48.893Z,4.60
2022-11-04T03:17:29.824Z,3.47
2022-11-04T03:20:00.275Z,5.85
2022-11-04T03:22:36.053Z,5.18
2022-11-04T03:25:06.326Z,4.57
2022-11-04T03:27:50.878Z,3.63
2022-11-04T03:30:19.806Z,7.85
2022-11-04T03:33:11.150Z,4.93
2022-11-04T03:35:38.277Z,3.60
2022-11-04T03:38:04.747Z,5.10
2022-11-04T03:40:31.216Z,2.53
2022-11-04T03:43:27.843Z,2.75
2022-11-04T03:45:55.564Z,2.85
2022-11-04T03:48:23.610Z,2.40
2022-11-04T03:50:51.125Z,2.58
2022-11-04T03:53:22.585Z,2.00
2022-11-04T03:56:07.705Z,4.07
2022-11-04T03:58:51.722Z,2.67
2022-11-04T04:04:08.584Z,2.45
2022-11-04T04:06:36.467Z,1.88
2022-11-04T04:09:39.963Z,1.40
2022-11-04T04:12:27.987Z,1.52
2022-11-04T04:15:07.273Z,2.85
2022-11-04T04:17:42.896Z,1.67
2022-11-04T04:20:15.149Z,1.90
2022-11-04T04:22:50.635Z,3.83
2022-11-04T04:25:36.735Z,3.50
2022-11-04T04:28:04.941Z,2.83
2022-11-04T04:30:31.686Z,3.00
2022-11-04T04:33:01.554Z,2.75
2022-11-04T04:35:42.174Z,2.20
2022-11-04T04:38:33.473Z,1.73
2022-11-04T04:41:24.725Z,2.03
2022-11-04T04:44:10.019Z,2.35
2022-11-04T04:46:38.681Z,4.90
2022-11-04T04:49:06.888Z,3.45
2022-11-04T04:51:36.323Z,1.60
2022-11-04T04:54:02.771Z,1.30
2022-11-04T04:56:29.237Z,1.83
2022-11-04T04:58:55.609Z,2.92
2022-11-04T05:01:22.143Z,1.80
2022-11-04T05:03:48.583Z,2.65
2022-11-04T05:06:14.961Z,1.20
2022-11-04T05:08:41.300Z,2.00
2022-11-04T05:11:07.790Z,1.73
2022-11-04T05:13:34.181Z,1.90
2022-11-04T05:16:05.818Z,1.92
2022-11-04T05:18:32.231Z,1.25
2022-11-04T05:20:58.617Z,3.50
2022-11-04T05:23:24.988Z,1.85
2022-11-04T05:25:51.444Z,4.95
2022-11-04T05:28:17.834Z,2.40
2022-11-04T05:30:44.373Z,2.60
2022-11-04T05:33:11.159Z,1.95
2022-11-04T05:35:37.833Z,2.83
2022-11-04T05:38:04.238Z,2.35
2022-11-04T05:40:30.672Z,1.30
2022-11-04T05:43:01.213Z,3.88
2022-11-04T05:45:28.857Z,1.50
2022-11-04T05:48:02.744Z,1.13
2022-11-04T05:50:30.708Z,2.72
2022-11-04T05:53:00.866Z,2.30
2022-11-04T05:55:27.700Z,2.25
2022-11-04T05:57:54.353Z,1.00
2022-11-04T06:00:20.865Z,1.58
2022-11-04T06:02:47.632Z,3.38
2022-11-04T06:05:14.083Z,1.73
2022-11-04T06:07:40.509Z,1.05
2022-11-04T06:10:07.355Z,2.38
2022-11-04T06:12:33.927Z,2.40
2022-11-04T06:15:00.335Z,1.65
2022-11-04T06:17:26.703Z,1.00
2022-11-04T06:19:53.145Z,2.00
2022-11-04T06:22:20.177Z,2.03
2022-11-04T06:24:46.819Z,2.40
2022-11-04T06:27:13.686Z,1.55
2022-11-04T06:29:41.247Z,4.15
2022-11-04T06:32:13.639Z,2.72
2022-11-04T06:34:40.425Z,3.00
2022-11-04T06:37:07.476Z,1.52
2022-11-04T06:39:34.320Z,1.00
2022-11-04T06:42:02.731Z,1.27
2022-11-04T06:44:29.620Z,4.35
2022-11-04T06:46:56.009Z,3.28
2022-11-04T06:49:23.290Z,1.75
2022-11-04T06:51:50.183Z,3.25
2022-11-04T06:54:17.558Z,1.65
2022-11-04T06:56:44.873Z,0.80
2022-11-04T06:59:16.992Z,2.83
2022-11-04T07:01:44.073Z,1.38
2022-11-04T07:04:10.602Z,0.93
2022-11-04T07:06:39.718Z,2.25
2022-11-04T07:09:11.716Z,3.97
2022-11-04T07:11:38.381Z,4.32
2022-11-04T07:14:04.976Z,2.40
2022-11-04T07:16:31.340Z,3.08
2022-11-04T07:18:57.721Z,4.60
2022-11-04T07:21:24.111Z,5.55
2022-11-04T07:23:50.677Z,2.63
2022-11-04T07:26:17.316Z,1.50
2022-11-04T07:28:43.808Z,2.83
2022-11-04T07:31:12.358Z,2.92
2022-11-04T07:33:38.899Z,1.15
2022-11-04T07:36:08.076Z,2.05
2022-11-04T07:38:34.896Z,2.83
2022-11-04T07:41:02.653Z,2.45
2022-11-04T07:43:29.966Z,4.28
2022-11-04T07:46:04.938Z,4.88
2022-11-04T07:48:31.535Z,2.50
2022-11-04T07:50:59.909Z,1.75
2022-11-04T07:53:27.960Z,3.22
2022-11-04T07:55:54.417Z,2.33
2022-11-04T07:58:22.011Z,4.72
2022-11-04T08:00:48.678Z,3.22
2022-11-04T08:03:15.786Z,4.93
2022-11-04T08:05:42.260Z,11.32
2022-11-04T08:08:08.625Z,6.07
2022-11-04T08:10:35.743Z,5.32
2022-11-04T08:13:02.138Z,3.45
2022-11-04T08:15:29.237Z,2.38
2022-11-04T08:17:55.650Z,2.92
2022-11-04T08:20:22.082Z,2.42
2022-11-04T08:22:48.455Z,2.90
2022-11-04T08:25:14.986Z,4.25
2022-11-04T08:27:41.376Z,3.78
2022-11-04T08:30:08.820Z,4.07
2022-11-04T08:32:35.402Z,5.05
2022-11-04T08:35:01.809Z,3.85
2022-11-04T08:37:28.234Z,5.53
2022-11-04T08:39:54.671Z,2.13
2022-11-04T08:42:21.050Z,3.83
2022-11-04T08:44:51.569Z,6.03
2022-11-04T08:47:18.269Z,6.07
2022-11-04T08:49:44.696Z,3.38
2022-11-04T08:52:11.109Z,3.67
2022-11-04T08:54:37.562Z,8.93
2022-11-04T08:57:04.443Z,4.22
2022-11-04T08:59:30.822Z,4.07
2022-11-04T09:01:57.278Z,2.78
2022-11-04T09:04:24.028Z,2.35
2022-11-04T09:06:52.111Z,3.63
2022-11-04T09:09:19.208Z,3.75
2022-11-04T09:11:46.456Z,2.67
2022-11-04T09:14:13.451Z,5.95
2022-11-04T09:16:41.685Z,7.90
2022-11-04T09:19:08.396Z,2.35
2022-11-04T09:21:35.062Z,3.72
2022-11-04T09:24:01.524Z,3.50
2022-11-04T09:26:28.237Z,5.72
2022-11-04T09:28:56.243Z,2.38
2022-11-04T09:31:23.792Z,2.97
2022-11-04T09:33:50.943Z,2.28
2022-11-04T09:36:17.593Z,4.57
2022-11-04T09:38:44.909Z,3.67
2022-11-04T09:41:48.684Z,3.92
2022-11-04T09:44:24.234Z,4.40
2022-11-04T09:46:54.850Z,3.33
2022-11-04T09:49:22.447Z,2.95
2022-11-04T09:51:55.179Z,6.85
2022-11-04T09:54:25.288Z,4.32
2022-11-04T09:56:55.201Z,2.95
2022-11-04T09:59:28.906Z,6.85
2022-11-04T10:04:39.700Z,5.22
2022-11-04T10:07:16.797Z,4.32
2022-11-04T10:09:58.001Z,8.25
2022-11-04T10:12:42.372Z,6.20
2022-11-04T10:15:20.945Z,1.58
2022-11-04T10:18:07.719Z,3.53
2022-11-04T10:20:58.418Z,2.22
2022-11-04T10:23:36.013Z,1.95
2022-11-04T10:26:24.019Z,5.72
2022-11-04T10:28:58.183Z,5.40
2022-11-04T10:31:25.265Z,6.57
2022-11-04T10:34:04.127Z,8.85
2022-11-04T10:36:31.527Z,5.63
2022-11-04T10:38:58.944Z,9.30
2022-11-04T10:41:30.097Z,4.70
2022-11-04T10:44:03.170Z,8.60
2022-11-04T10:46:46.675Z,5.28
2022-11-04T10:50:22.050Z,5.15
2022-11-04T10:52:37.868Z,5.77
2022-11-04T10:55:30.000Z,6.47
2022-11-04T10:57:58.314Z,8.20
2022-11-04T11:00:40.079Z,2.90
2022-11-04T11:03:27.330Z,3.85
2022-11-04T11:06:09.480Z,7.15
2022-11-04T11:08:37.382Z,6.93
2022-11-04T11:11:08.743Z,5.40
2022-11-04T11:13:38.751Z,8.05
2022-11-04T11:16:19.828Z,3.60
2022-11-04T11:19:12.070Z,5.80
2022-11-04T11:21:49.935Z,7.18
2022-11-04T11:24:30.809Z,8.15
2022-11-04T11:27:00.563Z,3.95
2022-11-04T11:29:42.273Z,5.03
2022-11-04T11:32:30.966Z,5.00
2022-11-04T11:35:02.773Z,12.60
2022-11-04T11:37:32.068Z,5.40
2022-11-04T11:39:58.866Z,5.80
2022-11-04T11:42:26.679Z,4.45
2022-11-04T11:44:56.323Z,6.97
2022-11-04T11:47:25.379Z,9.20
2022-11-04T11:50:14.247Z,4.97
2022-11-04T11:52:42.296Z,6.15
2022-11-04T11:55:28.774Z,5.07
2022-11-04T12:01:19.345Z,5.55
2022-11-04T12:10:24.183Z,5.20
2022-11-04T12:13:28.215Z,7.93
2022-11-04T12:16:16.228Z,4.18
2022-11-04T12:19:09.793Z,7.00
2022-11-04T12:21:44.675Z,6.60
2022-11-04T12:24:24.395Z,6.63
2022-11-04T12:27:12.956Z,13.30
2022-11-04T12:30:06.640Z,5.05
2022-11-04T12:32:39.168Z,7.80
2022-11-04T12:35:05.595Z,10.63
2022-11-04T12:37:46.482Z,5.45
2022-11-04T12:40:27.162Z,6.60
2022-11-04T12:43:20.222Z,8.00
2022-11-04T12:45:55.286Z,8.75
2022-11-04T12:48:52.996Z,8.73
2022-11-04T12:51:54.218Z,6.32
2022-11-04T12:54:46.546Z,7.63
2022-11-04T12:57:17.162Z,5.55
2022-11-04T13:00:06.350Z,5.03
2022-11-04T13:02:42.838Z,8.40
2022-11-04T13:05:21.121Z,2.40
2022-11-04T13:08:00.462Z,3.53
2022-11-04T13:10:55.080Z,8.10
2022-11-04T13:13:28.744Z,5.97
2022-11-04T13:15:59.461Z,7.68
2022-11-04T13:18:30.324Z,3.05
2022-11-04T13:21:21.524Z,4.50
2022-11-04T13:23:58.359Z,7.22
2022-11-04T13:26:24.922Z,7.55
2022-11-04T13:29:11.237Z,7.45
2022-11-04T13:32:08.473Z,7.05
2022-11-04T13:34:57.695Z,24.40
2022-11-04T13:37:36.392Z,3.47
2022-11-04T13:40:12.543Z,4.07
2022-11-04T13:42:44.972Z,4.80
2022-11-04T13:45:15.434Z,4.43
2022-11-04T13:47:47.012Z,6.43
2022-11-04T13:50:33.636Z,10.27
2022-11-04T13:53:00.206Z,7.53
2022-11-04T13:55:26.760Z,2.83
2022-11-04T13:58:05.435Z,10.98
2022-11-04T14:00:33.665Z,4.63
2022-11-04T14:03:21.060Z,9.73
2022-11-04T14:06:08.572Z,6.45
2022-11-04T14:08:35.311Z,6.18
2022-11-04T14:11:08.161Z,17.60
2022-11-04T14:13:45.030Z,7.28
2022-11-04T14:16:17.904Z,4.95
2022-11-04T14:18:47.438Z,3.67
2022-11-04T14:21:17.795Z,8.55
2022-11-04T14:23:51.648Z,3.63
2022-11-04T14:26:20.823Z,3.63
2022-11-04T14:28:59.953Z,4.95
2022-11-04T14:31:38.184Z,5.65
2022-11-04T14:34:06.026Z,4.55
2022-11-04T14:36:35.619Z,4.53
2022-11-04T14:39:04.957Z,7.18
2022-11-04T14:41:40.434Z,4.13
2022-11-04T14:44:13.010Z,8.32
2022-11-04T14:46:45.396Z,10.88
2022-11-04T14:49:38.547Z,8.18
2022-11-04T14:52:22.217Z,5.15
2022-11-04T14:54:50.008Z,14.48
2022-11-04T14:57:19.317Z,5.95
2022-11-04T14:59:47.047Z,5.60
2022-11-04T15:02:28.510Z,6.30
2022-11-04T15:04:59.937Z,5.50
2022-11-04T15:07:34.079Z,9.55
2022-11-04T15:10:03.366Z,6.20
2022-11-04T15:12:48.213Z,6.18
2022-11-04T15:15:38.608Z,5.05
2022-11-04T15:18:09.163Z,7.97
2022-11-04T15:20:40.114Z,5.85
2022-11-04T15:23:14.283Z,6.60
2022-11-04T15:25:48.788Z,6.47
2022-11-04T15:28:21.742Z,5.70
2022-11-04T15:31:11.140Z,6.82
2022-11-04T15:33:41.805Z,5.15
2022-11-04T15:36:13.908Z,7.50
2022-11-04T15:38:44.439Z,7.15
2022-11-04T15:41:33.161Z,7.53
2022-11-04T15:44:02.306Z,10.27
2022-11-04T15:46:29.688Z,12.40
2022-11-04T15:49:05.038Z,11.65
2022-11-04T15:51:37.821Z,8.77
2022-11-04T15:54:15.332Z,7.83
2022-11-04T15:56:52.257Z,9.85
2022-11-04T15:59:23.176Z,11.25
2022-11-04T16:01:52.368Z,11.45
2022-11-04T16:04:22.412Z,7.65
2022-11-04T16:07:05.354Z,12.88
2022-11-04T16:09:44.140Z,8.35
2022-11-04T16:12:28.776Z,8.02
2022-11-04T16:14:57.221Z,12.30
2022-11-04T16:17:25.607Z,7.57
2022-11-04T16:19:55.810Z,11.50
2022-11-04T16:22:34.304Z,7.68
2022-11-04T16:25:04.914Z,15.00
2022-11-04T16:27:34.529Z,15.57
2022-11-04T16:30:16.481Z,10.60
2022-11-04T16:32:45.180Z,11.75
2022-11-04T16:35:23.861Z,13.15
2022-11-04T16:37:51.378Z,11.77
2022-11-04T16:40:19.745Z,13.15
2022-11-04T16:42:47.487Z,15.13
2022-11-04T16:45:25.978Z,11.90
2022-11-04T16:47:53.519Z,11.52
2022-11-04T16:50:20.575Z,9.82
2022-11-04T16:52:47.108Z,13.02
2022-11-04T16:55:14.777Z,14.02
2022-11-04T16:57:41.711Z,12.65
2022-11-04T17:00:09.187Z,9.40
2022-11-04T17:02:41.082Z,13.93
2022-11-04T17:05:08.702Z,11.75
2022-11-04T17:07:52.062Z,10.48
2022-11-04T17:10:26.747Z,15.43
2022-11-04T17:12:53.201Z,11.15
2022-11-04T17:15:19.633Z,14.93
2022-11-04T17:17:46.116Z,9.18
2022-11-04T17:20:17.700Z,9.95
2022-11-04T17:22:45.432Z,14.77
2022-11-04T17:25:17.076Z,12.07
2022-11-04T17:27:44.380Z,12.90
2022-11-04T17:30:12.999Z,8.98
2022-11-04T17:32:39.500Z,13.50
2022-11-04T17:35:06.532Z,10.50
2022-11-04T17:37:32.919Z,11.30
2022-11-04T17:39:59.326Z,14.23
2022-11-04T17:42:44.595Z,11.35
2022-11-04T17:45:11.032Z,11.18
2022-11-04T17:47:38.203Z,10.20
2022-11-04T17:50:06.886Z,13.32
2022-11-04T17:52:34.431Z,15.43
2022-11-04T17:55:00.837Z,17.83
2022-11-04T17:57:27.263Z,16.63
2022-11-04T17:59:53.961Z,10.85
2022-11-04T18:02:20.534Z,15.43
2022-11-04T18:04:46.959Z,14.75
2022-11-04T18:07:13.375Z,19.25
2022-11-04T18:09:39.804Z,13.70
2022-11-04T18:12:25.461Z,12.05
2022-11-04T18:14:51.847Z,14.00
2022-11-04T18:17:18.345Z,10.13
2022-11-04T18:19:44.716Z,11.60
2022-11-04T18:22:11.127Z,14.43
2022-11-04T18:24:37.659Z,17.63
2022-11-04T18:27:04.104Z,14.02
2022-11-04T18:29:30.528Z,16.60
2022-11-04T18:31:56.992Z,15.88
2022-11-04T18:34:23.375Z,15.05
2022-11-04T18:36:49.816Z,14.25
2022-11-04T18:39:18.126Z,15.40
2022-11-04T18:41:45.759Z,20.38
2022-11-04T18:44:16.212Z,16.30
2022-11-04T18:46:43.536Z,19.95
2022-11-04T18:49:10.729Z,20.88
2022-11-04T18:51:37.527Z,22.02
2022-11-04T18:54:05.357Z,20.02
2022-11-04T18:56:32.530Z,24.45
2022-11-04T18:58:59.209Z,17.60
2022-11-04T19:01:31.754Z,19.63
2022-11-04T19:03:58.830Z,13.80
2022-11-04T19:06:33.739Z,12.00
2022-11-04T19:09:32.080Z,15.10
2022-11-04T19:12:12.613Z,9.13
2022-11-04T19:14:39.075Z,8.25
2022-11-04T19:17:05.440Z,6.25
2022-11-04T19:19:31.819Z,11.07
2022-11-04T19:21:58.258Z,8.18
2022-11-04T19:24:25.464Z,5.05
2022-11-04T19:26:51.833Z,12.40
2022-11-04T19:29:18.194Z,6.35
2022-11-04T19:31:45.104Z,8.43
2022-11-04T19:34:11.519Z,6.65
2022-11-04T19:36:38.218Z,13.93
2022-11-04T19:39:05.226Z,5.93
2022-11-04T19:41:50.670Z,9.07
2022-11-04T19:44:18.556Z,9.07
2022-11-04T19:46:45.579Z,8.73
2022-11-04T19:49:12.663Z,6.38
2022-11-04T19:51:39.688Z,9.02
2022-11-04T19:54:06.310Z,8.88
2022-11-04T19:56:33.667Z,8.00
2022-11-04T19:59:05.599Z,10.52
2022-11-04T20:01:34.406Z,10.43
2022-11-04T20:04:02.731Z,7.80
2022-11-04T20:06:32.169Z,11.02
2022-11-04T20:09:01.896Z,8.30
2022-11-04T20:11:28.459Z,12.25
2022-11-04T20:13:55.018Z,13.43
2022-11-04T20:16:27.769Z,8.05
2022-11-04T20:18:56.888Z,9.73
2022-11-04T20:21:25.505Z,7.40
2022-11-04T20:23:56.248Z,10.43
2022-11-04T20:26:24.201Z,6.63
2022-11-04T20:28:54.361Z,6.10
2022-11-04T20:31:23.773Z,8.43
2022-11-04T20:33:51.317Z,7.25
2022-11-04T20:36:19.753Z,7.38
2022-11-04T20:38:47.383Z,12.38
2022-11-04T20:41:18.636Z,13.48
2022-11-04T20:43:46.854Z,12.05
2022-11-04T20:46:15.947Z,10.48
2022-11-04T20:48:42.415Z,7.80
2022-11-04T20:51:19.976Z,8.73
2022-11-04T20:53:47.366Z,6.55
2022-11-04T20:56:19.451Z,14.55
2022-11-04T20:58:48.424Z,8.35
2022-11-04T21:01:21.286Z,10.93
2022-11-04T21:03:47.775Z,9.77
2022-11-04T21:06:14.232Z,9.48
2022-11-04T21:08:40.599Z,6.55
2022-11-04T21:11:07.600Z,6.10
2022-11-04T21:13:34.324Z,6.43
2022-11-04T21:16:02.016Z,9.18
2022-11-04T21:18:28.425Z,8.65
2022-11-04T21:20:55.052Z,4.68
2022-11-04T21:23:21.592Z,6.15
2022-11-04T21:25:55.614Z,9.70
2022-11-04T21:28:22.634Z,5.60
2022-11-04T21:30:51.447Z,6.60
2022-11-04T21:33:18.108Z,5.38
2022-11-04T21:35:45.547Z,6.47
2022-11-04T21:38:15.338Z,8.32
2022-11-04T21:40:42.863Z,5.32
2022-11-04T21:43:10.247Z,7.78
2022-11-04T21:45:36.833Z,7.40
2022-11-04T21:48:04.879Z,6.45
2022-11-04T21:50:31.540Z,10.18
2022-11-04T21:52:58.375Z,10.45
2022-11-04T21:55:25.007Z,6.28
2022-11-04T21:57:51.454Z,4.97
2022-11-04T22:00:17.896Z,5.20
2022-11-04T22:02:44.598Z,5.28
2022-11-04T22:05:11.829Z,8.13
2022-11-04T22:07:57.876Z,4.22
2022-11-04T22:10:26.035Z,7.35
2022-11-04T22:12:52.829Z,9.20
2022-11-04T22:15:39.676Z,6.45
2022-11-04T22:18:06.773Z,7.45
2022-11-04T22:20:36.072Z,8.35
2022-11-04T22:23:02.776Z,7.03
2022-11-04T22:25:30.474Z,7.70
2022-11-04T22:27:56.894Z,5.63
2022-11-04T22:30:23.347Z,4.95
2022-11-04T22:32:49.750Z,8.23
2022-11-04T22:35:16.197Z,5.97
2022-11-04T22:37:43.124Z,6.05
2022-11-04T22:40:09.930Z,4.97
2022-11-04T22:42:36.316Z,4.20
2022-11-04T22:45:02.969Z,7.03
2022-11-04T22:47:29.372Z,4.00
2022-11-04T22:49:55.733Z,8.13
2022-11-04T22:52:22.121Z,5.35
2022-11-04T22:54:48.587Z,7.35
2022-11-04T22:57:14.975Z,7.57
2022-11-04T22:59:41.362Z,5.93
2022-11-04T23:02:07.914Z,4.38
2022-11-04T23:04:34.542Z,4.68
2022-11-04T23:07:00.911Z,4.28
2022-11-04T23:09:27.309Z,4.97
2022-11-04T23:12:12.584Z,4.13
2022-11-04T23:14:57.706Z,7.90
2022-11-04T23:17:43.026Z,4.68
2022-11-04T23:20:13.113Z,6.10
2022-11-04T23:22:58.320Z,6.18
2022-11-04T23:25:25.498Z,8.10
2022-11-04T23:28:13.567Z,6.38
2022-11-04T23:30:45.416Z,10.35
2022-11-04T23:33:14.555Z,5.03
2022-11-04T23:36:05.913Z,6.35
2022-11-04T23:38:33.173Z,6.82
2022-11-04T23:41:24.145Z,6.40
2022-11-04T23:43:50.540Z,4.75
2022-11-04T23:46:41.145Z,6.55
2022-11-04T23:49:13.284Z,5.75
2022-11-04T23:51:58.584Z,6.55
2022-11-04T23:54:43.797Z,4.53
2022-11-04T23:57:38.201Z,9.43
